Ride Results

Gidgegannup (27-06-1998)
Ride distance: 80.0 km

Outcomes - Gidgegannup (27-06-1998)
Division No. of Entries Retired / DNE Completed Withdrawn Ineligible V/O Percentage Completed
HW 6 - 2 - - 4 33.33%
MW 14 - 7 - - 7 50.00%
LW 11 - 11 - - - 100.00%
JN 6 - 2 - - 4 33.33%
Totals 37 - 22 - - 15 59.46%
Results - Gidgegannup (27-06-1998)
No. Rider Horse Place Time Leg Speeds Total
Km/Hr
H/R bpm
Heavyweight
34 Norb Radny Kada's Ta'baah 1 5:59:00 14.8, 12.1 13.37 36, 43, 57 (Avg:50)
76 Robert Burns Maralinga Omega 2 6:59:00 12.1, 10.8 11.46 40, 49, 55 (Avg:52)
73 Mike Gill Santora Rafik Heart Rate L2 0:00:00 14.2, 8.1 - 46, 50, 68 (Avg:59)
38 Harry O'Brien Sharahd Giselle Lame L1 0:00:00 15.9 - 36, 33 (Avg:33)
3 Andrew Smith Roany Lame L1 0:00:00 16.1 - 39, 42 (Avg:42)
39 Meg Woodhouse Indian Rae Lame L1 0:00:00 12.0 - 39, 41 (Avg:41)
Middleweight
56 Bill Dransfield Fawley Indigo 1 4:52:00 18.6, 14.7 16.44 34, 39, 49 (Avg:44)
53 Liz Cullam Al Barak 2 6:01:00 15.9, 11.3 13.30 49, 39, 59 (Avg:49)
27 Janet Cameron Ruoak Prism 3 6:54:00 14.3, 9.7 11.59 37, 48, 46 (Avg:47)
15 Frances Overheu Rumpole 3 6:54:00 14.3, 9.7 11.59 35, 43, 49 (Avg:46)
54 Arthur Collins Scout 5 7:28:00 15.7, 8.1 10.71 34, 44, 56 (Avg:50)
33 Keith Andrews Glenrenley Rainbow 6 7:50:00 12.2, 8.7 10.21 37, 42, 49 (Avg:45)
98 Ken Hobday Blue 7 8:26:00 11.5, 8.0 9.49 38, 43, 47 (Avg:45)
94 Glenn Dix Top Fancy Caleb Heart Rate L2 0:00:00 12.6, 6.9 - 38, 45, 61 (Avg:53)
1 Tony Duffy Robmurty Sonnamall Lame L2 0:00:00 16.6, 7.6 - 36, 38, 46 (Avg:42)
16 Michelle Lewis Yeoman Zadaya Heart Rate L2 0:00:00 12.2, 8.7 - 36, 44, 61 (Avg:52)
69 Kathryn Bain Haili Lame L1 0:00:00 17.5 - 32, 42 (Avg:42)
43 Jesse Denham Shatann Lame L1 0:00:00 14.7 - 38, 38 (Avg:38)
47 Anton Reid T-Jay Lame L1 0:00:00 18.6 - 37, 50 (Avg:50)
35 Trevor Ward Weatherley Standing Ovation Lame L1 0:00:00 11.3 - 36, 44 (Avg:44)
Lightweight
19 Leanne Hawkins Yaldon Hadi 1 4:52:00 17.5, 15.4 16.44 42, 43, 55 (Avg:49)
11 Michelle Lally Abba 2 5:42:00 15.9, 12.4 14.04 33, 45, 54 (Avg:49)
17 Miriam Burns Chantilly Lace 3 5:50:00 15.9, 11.9 13.71 36, 41, 47 (Avg:44)
13 Jane Radny Pinosa Park Mikhaal 4 5:59:00 14.7, 12.2 13.37 44, 43, 48 (Avg:45)
67 Brenda Blucher Tanderra Pizaz 5 6:35:00 15.7, 9.8 12.15 34, 39, 43 (Avg:41)
18 Linda Blanchard Soul 6 7:28:00 12.2, 9.5 10.71 34, 42, 50 (Avg:46)
20 Amanda Rayner Yaldon Snowdrift 6 7:28:00 12.6, 9.3 10.71 42, 40, 45 (Avg:42)
25 Rebecca Taylor Bawara Khibrah 8 7:30:00 11.5, 9.8 10.67 34, 37, 45 (Avg:41)
12 Liz Mulcahy Broadway 9 7:44:00 11.7, 9.2 10.34 32, 37, 50 (Avg:43)
10 Lyn Summerfield Yeelirrie Arabian Prancer 9 7:44:00 11.5, 9.3 10.34 32, 41, 44 (Avg:42)
14 Jan Andrews Kadova Spellbound 11 7:50:00 12.2, 8.7 10.21 30, 36, 41 (Avg:38)
Junior
6 James Lockwood Jaffa 1 4:53:00 16.7, 15.9 16.38 33, 39, 43 (Avg:41)
8 Tegan Symington Yamegi Dhaiyall 2 7:44:00 11.7, 9.2 10.34 38, 40, 47 (Avg:43)
5 Cassie Mulcahy Top Fancy Foxfire Lame L2 0:00:00 11.7, 3.1 - 36, 43 (Avg:43)
9 David Riches Zeppelin Heart Rate L2 0:00:00 11.6, 7.9 - 37, 40, 63 (Avg:51)
7 Tim Denham Shareeba Lame L1 0:00:00 14.7 - 38, 38 (Avg:38)
4 Jamie Linthorne Tazsh Kamil Lea Lame L1 0:00:00 11.5 - 37, 47 (Avg:47)